sensor_id;sensor_type;location;lat;lon;timestamp;P1;durP1;ratioP1;P2;durP2;ratioP2
33184;SDS011;19550;42.872;25.494;2022-07-04T00:01:48;11.18;;;7.40;;
33184;SDS011;19550;42.872;25.494;2022-07-04T00:04:15;7.60;;;6.80;;
33184;SDS011;19550;42.872;25.494;2022-07-04T00:06:42;9.65;;;7.60;;
33184;SDS011;19550;42.872;25.494;2022-07-04T00:09:11;8.20;;;7.25;;
33184;SDS011;19550;42.872;25.494;2022-07-04T00:11:38;9.80;;;7.25;;
33184;SDS011;19550;42.872;25.494;2022-07-04T00:14:05;13.02;;;8.23;;
33184;SDS011;19550;42.872;25.494;2022-07-04T00:16:32;13.05;;;8.05;;
33184;SDS011;19550;42.872;25.494;2022-07-04T00:18:59;11.45;;;7.75;;
33184;SDS011;19550;42.872;25.494;2022-07-04T00:21:26;10.95;;;7.47;;
33184;SDS011;19550;42.872;25.494;2022-07-04T00:23:53;12.40;;;8.05;;
33184;SDS011;19550;42.872;25.494;2022-07-04T00:26:22;12.98;;;7.32;;
33184;SDS011;19550;42.872;25.494;2022-07-04T00:28:49;11.07;;;7.57;;
33184;SDS011;19550;42.872;25.494;2022-07-04T00:31:16;8.07;;;7.25;;
33184;SDS011;19550;42.872;25.494;2022-07-04T00:33:43;8.95;;;7.07;;
33184;SDS011;19550;42.872;25.494;2022-07-04T00:36:10;10.55;;;7.97;;
33184;SDS011;19550;42.872;25.494;2022-07-04T00:38:37;10.73;;;7.82;;
33184;SDS011;19550;42.872;25.494;2022-07-04T00:41:04;8.00;;;7.22;;
33184;SDS011;19550;42.872;25.494;2022-07-04T00:43:33;10.77;;;7.30;;
33184;SDS011;19550;42.872;25.494;2022-07-04T00:46:02;13.20;;;7.70;;
33184;SDS011;19550;42.872;25.494;2022-07-04T00:48:30;8.50;;;7.53;;
33184;SDS011;19550;42.872;25.494;2022-07-04T00:50:57;8.82;;;7.13;;
33184;SDS011;19550;42.872;25.494;2022-07-04T00:53:24;9.30;;;7.13;;
33184;SDS011;19550;42.872;25.494;2022-07-04T00:55:52;8.85;;;7.28;;
33184;SDS011;19550;42.872;25.494;2022-07-04T00:58:20;10.35;;;7.50;;
33184;SDS011;19550;42.872;25.494;2022-07-04T01:00:49;7.57;;;6.80;;
33184;SDS011;19550;42.872;25.494;2022-07-04T01:03:17;11.77;;;7.80;;
33184;SDS011;19550;42.872;25.494;2022-07-04T01:05:44;9.73;;;7.18;;
33184;SDS011;19550;42.872;25.494;2022-07-04T01:08:11;10.45;;;7.50;;
33184;SDS011;19550;42.872;25.494;2022-07-04T01:10:39;11.30;;;8.48;;
33184;SDS011;19550;42.872;25.494;2022-07-04T01:13:06;9.27;;;7.22;;
33184;SDS011;19550;42.872;25.494;2022-07-04T01:15:34;9.80;;;7.18;;
33184;SDS011;19550;42.872;25.494;2022-07-04T01:18:02;7.72;;;6.93;;
33184;SDS011;19550;42.872;25.494;2022-07-04T01:20:34;10.85;;;7.38;;
33184;SDS011;19550;42.872;25.494;2022-07-04T01:23:02;10.32;;;7.20;;
33184;SDS011;19550;42.872;25.494;2022-07-04T01:25:30;13.30;;;7.47;;
33184;SDS011;19550;42.872;25.494;2022-07-04T01:27:58;8.40;;;7.18;;
33184;SDS011;19550;42.872;25.494;2022-07-04T01:30:25;13.77;;;7.55;;
33184;SDS011;19550;42.872;25.494;2022-07-04T01:32:53;8.50;;;7.35;;
33184;SDS011;19550;42.872;25.494;2022-07-04T01:35:20;9.70;;;7.53;;
33184;SDS011;19550;42.872;25.494;2022-07-04T01:37:49;11.32;;;7.97;;
33184;SDS011;19550;42.872;25.494;2022-07-04T01:40:16;9.55;;;7.82;;
33184;SDS011;19550;42.872;25.494;2022-07-04T01:42:44;8.50;;;7.43;;
33184;SDS011;19550;42.872;25.494;2022-07-04T01:45:11;9.60;;;7.85;;
33184;SDS011;19550;42.872;25.494;2022-07-04T01:47:38;9.13;;;7.03;;
33184;SDS011;19550;42.872;25.494;2022-07-04T01:50:07;9.25;;;7.20;;
33184;SDS011;19550;42.872;25.494;2022-07-04T01:52:37;8.73;;;7.80;;
33184;SDS011;19550;42.872;25.494;2022-07-04T01:55:07;10.35;;;7.45;;
33184;SDS011;19550;42.872;25.494;2022-07-04T01:57:35;8.57;;;7.75;;
33184;SDS011;19550;42.872;25.494;2022-07-04T02:00:02;9.82;;;7.95;;
33184;SDS011;19550;42.872;25.494;2022-07-04T02:02:48;9.38;;;7.38;;
33184;SDS011;19550;42.872;25.494;2022-07-04T02:05:15;9.55;;;7.40;;
33184;SDS011;19550;42.872;25.494;2022-07-04T02:07:42;10.43;;;7.28;;
33184;SDS011;19550;42.872;25.494;2022-07-04T02:10:10;8.48;;;7.43;;
33184;SDS011;19550;42.872;25.494;2022-07-04T02:12:37;9.45;;;7.85;;
33184;SDS011;19550;42.872;25.494;2022-07-04T02:15:22;9.27;;;8.23;;
33184;SDS011;19550;42.872;25.494;2022-07-04T02:17:49;14.25;;;7.85;;
33184;SDS011;19550;42.872;25.494;2022-07-04T02:20:16;9.30;;;8.05;;
33184;SDS011;19550;42.872;25.494;2022-07-04T02:22:43;8.82;;;7.93;;
33184;SDS011;19550;42.872;25.494;2022-07-04T02:25:12;9.88;;;7.50;;
33184;SDS011;19550;42.872;25.494;2022-07-04T02:27:40;11.05;;;8.00;;
33184;SDS011;19550;42.872;25.494;2022-07-04T02:30:07;13.73;;;7.60;;
33184;SDS011;19550;42.872;25.494;2022-07-04T02:32:35;14.32;;;8.93;;
33184;SDS011;19550;42.872;25.494;2022-07-04T02:35:02;10.95;;;8.25;;
33184;SDS011;19550;42.872;25.494;2022-07-04T02:37:30;11.82;;;7.75;;
33184;SDS011;19550;42.872;25.494;2022-07-04T02:39:57;9.55;;;8.05;;
33184;SDS011;19550;42.872;25.494;2022-07-04T02:42:26;11.40;;;7.80;;
33184;SDS011;19550;42.872;25.494;2022-07-04T02:44:55;9.00;;;8.00;;
33184;SDS011;19550;42.872;25.494;2022-07-04T02:47:22;13.30;;;8.07;;
33184;SDS011;19550;42.872;25.494;2022-07-04T02:49:51;13.00;;;8.40;;
33184;SDS011;19550;42.872;25.494;2022-07-04T02:52:18;11.57;;;7.95;;
33184;SDS011;19550;42.872;25.494;2022-07-04T02:54:45;10.25;;;7.70;;
33184;SDS011;19550;42.872;25.494;2022-07-04T02:57:13;10.15;;;7.45;;
33184;SDS011;19550;42.872;25.494;2022-07-04T02:59:42;14.63;;;8.65;;
33184;SDS011;19550;42.872;25.494;2022-07-04T03:02:09;10.38;;;8.38;;
33184;SDS011;19550;42.872;25.494;2022-07-04T03:04:36;10.48;;;8.25;;
33184;SDS011;19550;42.872;25.494;2022-07-04T03:07:05;14.88;;;8.57;;
33184;SDS011;19550;42.872;25.494;2022-07-04T03:09:33;11.68;;;8.30;;
33184;SDS011;19550;42.872;25.494;2022-07-04T03:12:00;9.10;;;7.90;;
33184;SDS011;19550;42.872;25.494;2022-07-04T03:14:27;10.82;;;8.23;;
33184;SDS011;19550;42.872;25.494;2022-07-04T03:16:55;9.55;;;7.80;;
33184;SDS011;19550;42.872;25.494;2022-07-04T03:19:22;9.10;;;8.20;;
33184;SDS011;19550;42.872;25.494;2022-07-04T03:21:49;11.45;;;8.38;;
33184;SDS011;19550;42.872;25.494;2022-07-04T03:24:16;9.90;;;8.50;;
33184;SDS011;19550;42.872;25.494;2022-07-04T03:26:43;9.82;;;8.60;;
33184;SDS011;19550;42.872;25.494;2022-07-04T03:29:10;12.82;;;8.80;;
33184;SDS011;19550;42.872;25.494;2022-07-04T03:31:37;11.20;;;8.60;;
33184;SDS011;19550;42.872;25.494;2022-07-04T03:34:06;12.30;;;8.27;;
33184;SDS011;19550;42.872;25.494;2022-07-04T03:36:33;9.40;;;8.15;;
33184;SDS011;19550;42.872;25.494;2022-07-04T03:39:00;10.45;;;8.60;;
33184;SDS011;19550;42.872;25.494;2022-07-04T03:41:27;11.90;;;8.52;;
33184;SDS011;19550;42.872;25.494;2022-07-04T03:43:54;14.13;;;8.75;;
33184;SDS011;19550;42.872;25.494;2022-07-04T03:46:21;11.80;;;8.40;;
33184;SDS011;19550;42.872;25.494;2022-07-04T03:48:48;12.48;;;8.35;;
33184;SDS011;19550;42.872;25.494;2022-07-04T03:51:16;19.92;;;8.77;;
33184;SDS011;19550;42.872;25.494;2022-07-04T03:53:43;11.80;;;8.70;;
33184;SDS011;19550;42.872;25.494;2022-07-04T03:56:10;12.15;;;8.55;;
33184;SDS011;19550;42.872;25.494;2022-07-04T03:58:37;11.18;;;8.57;;
33184;SDS011;19550;42.872;25.494;2022-07-04T04:01:04;16.80;;;7.90;;
33184;SDS011;19550;42.872;25.494;2022-07-04T04:03:31;16.05;;;8.57;;
33184;SDS011;19550;42.872;25.494;2022-07-04T04:06:17;16.73;;;8.77;;
33184;SDS011;19550;42.872;25.494;2022-07-04T04:08:44;19.40;;;9.18;;
33184;SDS011;19550;42.872;25.494;2022-07-04T04:11:11;25.17;;;8.35;;
33184;SDS011;19550;42.872;25.494;2022-07-04T04:13:38;12.93;;;9.20;;
33184;SDS011;19550;42.872;25.494;2022-07-04T04:16:05;14.18;;;8.88;;
33184;SDS011;19550;42.872;25.494;2022-07-04T04:18:32;18.95;;;8.63;;
33184;SDS011;19550;42.872;25.494;2022-07-04T04:20:59;14.05;;;8.77;;
33184;SDS011;19550;42.872;25.494;2022-07-04T04:23:28;20.95;;;9.65;;
33184;SDS011;19550;42.872;25.494;2022-07-04T04:25:55;24.52;;;8.75;;
33184;SDS011;19550;42.872;25.494;2022-07-04T04:28:22;27.35;;;8.85;;
33184;SDS011;19550;42.872;25.494;2022-07-04T04:30:49;11.90;;;8.38;;
33184;SDS011;19550;42.872;25.494;2022-07-04T04:33:16;16.67;;;9.32;;
33184;SDS011;19550;42.872;25.494;2022-07-04T04:35:44;12.15;;;9.55;;
33184;SDS011;19550;42.872;25.494;2022-07-04T04:38:11;15.20;;;9.43;;
33184;SDS011;19550;42.872;25.494;2022-07-04T04:40:39;15.35;;;9.82;;
33184;SDS011;19550;42.872;25.494;2022-07-04T04:43:06;12.25;;;10.23;;
33184;SDS011;19550;42.872;25.494;2022-07-04T04:45:33;15.77;;;10.18;;
33184;SDS011;19550;42.872;25.494;2022-07-04T04:48:00;22.83;;;9.93;;
33184;SDS011;19550;42.872;25.494;2022-07-04T04:50:27;13.40;;;8.95;;
33184;SDS011;19550;42.872;25.494;2022-07-04T04:52:54;14.50;;;8.60;;
33184;SDS011;19550;42.872;25.494;2022-07-04T04:55:22;20.30;;;8.63;;
33184;SDS011;19550;42.872;25.494;2022-07-04T04:57:51;13.40;;;7.97;;
33184;SDS011;19550;42.872;25.494;2022-07-04T05:00:18;12.40;;;7.55;;
33184;SDS011;19550;42.872;25.494;2022-07-04T05:02:45;20.13;;;8.13;;
33184;SDS011;19550;42.872;25.494;2022-07-04T05:05:12;12.50;;;7.95;;
33184;SDS011;19550;42.872;25.494;2022-07-04T05:07:39;21.23;;;8.70;;
33184;SDS011;19550;42.872;25.494;2022-07-04T05:10:07;19.63;;;8.02;;
33184;SDS011;19550;42.872;25.494;2022-07-04T05:12:35;12.18;;;8.40;;
33184;SDS011;19550;42.872;25.494;2022-07-04T05:15:04;12.90;;;8.25;;
33184;SDS011;19550;42.872;25.494;2022-07-04T05:17:32;19.65;;;7.47;;
33184;SDS011;19550;42.872;25.494;2022-07-04T05:19:59;52.92;;;8.88;;
33184;SDS011;19550;42.872;25.494;2022-07-04T05:22:25;49.22;;;9.40;;
33184;SDS011;19550;42.872;25.494;2022-07-04T05:24:52;12.45;;;8.30;;
33184;SDS011;19550;42.872;25.494;2022-07-04T05:27:19;19.75;;;8.85;;
33184;SDS011;19550;42.872;25.494;2022-07-04T05:29:47;20.40;;;8.80;;
33184;SDS011;19550;42.872;25.494;2022-07-04T05:32:15;21.05;;;7.65;;
33184;SDS011;19550;42.872;25.494;2022-07-04T05:34:42;18.38;;;7.78;;
33184;SDS011;19550;42.872;25.494;2022-07-04T05:37:09;10.90;;;7.85;;
33184;SDS011;19550;42.872;25.494;2022-07-04T05:39:36;12.65;;;7.72;;
33184;SDS011;19550;42.872;25.494;2022-07-04T05:42:03;14.15;;;7.15;;
33184;SDS011;19550;42.872;25.494;2022-07-04T05:44:30;12.48;;;7.03;;
33184;SDS011;19550;42.872;25.494;2022-07-04T05:46:57;12.82;;;7.10;;
33184;SDS011;19550;42.872;25.494;2022-07-04T05:49:26;15.18;;;7.20;;
33184;SDS011;19550;42.872;25.494;2022-07-04T05:51:53;21.15;;;7.18;;
33184;SDS011;19550;42.872;25.494;2022-07-04T05:54:20;16.77;;;6.82;;
33184;SDS011;19550;42.872;25.494;2022-07-04T05:56:47;13.38;;;7.03;;
33184;SDS011;19550;42.872;25.494;2022-07-04T05:59:14;15.57;;;7.65;;
33184;SDS011;19550;42.872;25.494;2022-07-04T06:01:41;13.70;;;6.80;;
33184;SDS011;19550;42.872;25.494;2022-07-04T06:04:08;13.43;;;7.47;;
33184;SDS011;19550;42.872;25.494;2022-07-04T06:06:37;12.00;;;7.47;;
33184;SDS011;19550;42.872;25.494;2022-07-04T06:09:04;14.00;;;7.55;;
33184;SDS011;19550;42.872;25.494;2022-07-04T06:11:31;16.60;;;8.00;;
33184;SDS011;19550;42.872;25.494;2022-07-04T06:13:58;16.02;;;7.72;;
33184;SDS011;19550;42.872;25.494;2022-07-04T06:16:25;12.98;;;6.95;;
33184;SDS011;19550;42.872;25.494;2022-07-04T06:18:52;15.10;;;7.22;;
33184;SDS011;19550;42.872;25.494;2022-07-04T06:21:19;13.05;;;7.07;;
33184;SDS011;19550;42.872;25.494;2022-07-04T06:23:47;9.88;;;6.30;;
33184;SDS011;19550;42.872;25.494;2022-07-04T06:26:14;9.88;;;6.80;;
33184;SDS011;19550;42.872;25.494;2022-07-04T06:28:41;9.68;;;6.82;;
33184;SDS011;19550;42.872;25.494;2022-07-04T06:31:08;9.77;;;6.70;;
33184;SDS011;19550;42.872;25.494;2022-07-04T06:33:36;16.65;;;6.85;;
33184;SDS011;19550;42.872;25.494;2022-07-04T06:36:24;17.73;;;6.82;;
33184;SDS011;19550;42.872;25.494;2022-07-04T06:38:51;14.00;;;6.97;;
33184;SDS011;19550;42.872;25.494;2022-07-04T06:41:18;12.13;;;7.05;;
33184;SDS011;19550;42.872;25.494;2022-07-04T06:43:45;15.30;;;8.02;;
33184;SDS011;19550;42.872;25.494;2022-07-04T06:46:12;25.55;;;13.00;;
33184;SDS011;19550;42.872;25.494;2022-07-04T06:48:40;26.02;;;8.52;;
33184;SDS011;19550;42.872;25.494;2022-07-04T06:51:08;22.05;;;8.00;;
33184;SDS011;19550;42.872;25.494;2022-07-04T06:53:35;11.32;;;7.50;;
33184;SDS011;19550;42.872;25.494;2022-07-04T06:56:03;15.45;;;5.90;;
33184;SDS011;19550;42.872;25.494;2022-07-04T06:58:30;23.65;;;6.70;;
33184;SDS011;19550;42.872;25.494;2022-07-04T07:00:57;13.80;;;5.53;;
33184;SDS011;19550;42.872;25.494;2022-07-04T07:03:24;9.63;;;5.85;;
33184;SDS011;19550;42.872;25.494;2022-07-04T07:05:52;10.40;;;4.75;;
33184;SDS011;19550;42.872;25.494;2022-07-04T07:08:20;15.98;;;4.78;;
33184;SDS011;19550;42.872;25.494;2022-07-04T07:10:47;9.93;;;5.47;;
33184;SDS011;19550;42.872;25.494;2022-07-04T07:13:15;9.52;;;4.95;;
33184;SDS011;19550;42.872;25.494;2022-07-04T07:15:43;10.23;;;4.13;;
33184;SDS011;19550;42.872;25.494;2022-07-04T07:18:10;6.78;;;4.18;;
33184;SDS011;19550;42.872;25.494;2022-07-04T07:20:37;7.57;;;4.05;;
33184;SDS011;19550;42.872;25.494;2022-07-04T07:23:04;8.38;;;4.18;;
33184;SDS011;19550;42.872;25.494;2022-07-04T07:25:31;9.35;;;4.32;;
33184;SDS011;19550;42.872;25.494;2022-07-04T07:27:58;6.50;;;4.28;;
33184;SDS011;19550;42.872;25.494;2022-07-04T07:30:27;6.57;;;4.30;;
33184;SDS011;19550;42.872;25.494;2022-07-04T07:32:54;8.98;;;3.95;;
33184;SDS011;19550;42.872;25.494;2022-07-04T07:35:21;13.20;;;4.97;;
33184;SDS011;19550;42.872;25.494;2022-07-04T07:37:48;8.38;;;3.80;;
33184;SDS011;19550;42.872;25.494;2022-07-04T07:40:15;7.80;;;4.10;;
33184;SDS011;19550;42.872;25.494;2022-07-04T07:42:42;8.25;;;4.07;;
33184;SDS011;19550;42.872;25.494;2022-07-04T07:45:09;10.40;;;4.30;;
33184;SDS011;19550;42.872;25.494;2022-07-04T07:47:38;7.82;;;3.78;;
33184;SDS011;19550;42.872;25.494;2022-07-04T07:50:05;7.97;;;4.18;;
33184;SDS011;19550;42.872;25.494;2022-07-04T07:52:32;16.23;;;4.63;;
33184;SDS011;19550;42.872;25.494;2022-07-04T07:54:59;7.00;;;3.95;;
33184;SDS011;19550;42.872;25.494;2022-07-04T07:57:27;6.18;;;4.20;;
33184;SDS011;19550;42.872;25.494;2022-07-04T07:59:54;9.00;;;4.38;;
33184;SDS011;19550;42.872;25.494;2022-07-04T08:02:22;8.05;;;3.80;;
33184;SDS011;19550;42.872;25.494;2022-07-04T08:05:12;10.07;;;4.20;;
33184;SDS011;19550;42.872;25.494;2022-07-04T08:07:38;11.82;;;4.93;;
33184;SDS011;19550;42.872;25.494;2022-07-04T08:10:05;12.38;;;4.07;;
33184;SDS011;19550;42.872;25.494;2022-07-04T08:12:33;7.40;;;4.75;;
33184;SDS011;19550;42.872;25.494;2022-07-04T08:15:00;19.73;;;4.95;;
33184;SDS011;19550;42.872;25.494;2022-07-04T08:17:28;13.25;;;5.10;;
33184;SDS011;19550;42.872;25.494;2022-07-04T08:19:55;9.02;;;4.47;;
33184;SDS011;19550;42.872;25.494;2022-07-04T08:22:23;10.00;;;4.28;;
33184;SDS011;19550;42.872;25.494;2022-07-04T08:24:50;9.50;;;4.00;;
33184;SDS011;19550;42.872;25.494;2022-07-04T08:27:17;8.57;;;4.05;;
33184;SDS011;19550;42.872;25.494;2022-07-04T08:29:45;7.10;;;4.03;;
33184;SDS011;19550;42.872;25.494;2022-07-04T08:32:12;8.18;;;4.03;;
33184;SDS011;19550;42.872;25.494;2022-07-04T08:34:39;8.32;;;4.10;;
33184;SDS011;19550;42.872;25.494;2022-07-04T08:37:08;8.10;;;4.20;;
33184;SDS011;19550;42.872;25.494;2022-07-04T08:39:36;9.15;;;4.75;;
33184;SDS011;19550;42.872;25.494;2022-07-04T08:42:05;6.32;;;4.13;;
33184;SDS011;19550;42.872;25.494;2022-07-04T08:44:37;8.68;;;4.00;;
33184;SDS011;19550;42.872;25.494;2022-07-04T08:47:07;7.88;;;4.28;;
33184;SDS011;19550;42.872;25.494;2022-07-04T08:49:35;14.02;;;4.32;;
33184;SDS011;19550;42.872;25.494;2022-07-04T08:52:05;7.45;;;4.22;;
33184;SDS011;19550;42.872;25.494;2022-07-04T08:54:37;10.88;;;4.60;;
33184;SDS011;19550;42.872;25.494;2022-07-04T08:57:23;11.13;;;4.80;;
33184;SDS011;19550;42.872;25.494;2022-07-04T09:00:07;13.35;;;4.50;;
33184;SDS011;19550;42.872;25.494;2022-07-04T09:02:35;7.07;;;4.13;;
33184;SDS011;19550;42.872;25.494;2022-07-04T09:05:03;20.02;;;4.90;;
33184;SDS011;19550;42.872;25.494;2022-07-04T09:07:31;9.15;;;3.95;;
33184;SDS011;19550;42.872;25.494;2022-07-04T09:10:00;9.02;;;3.95;;
33184;SDS011;19550;42.872;25.494;2022-07-04T09:12:29;17.13;;;4.70;;
33184;SDS011;19550;42.872;25.494;2022-07-04T09:14:56;14.77;;;4.72;;
33184;SDS011;19550;42.872;25.494;2022-07-04T09:17:24;11.88;;;6.88;;
33184;SDS011;19550;42.872;25.494;2022-07-04T09:22:39;16.70;;;4.70;;
33184;SDS011;19550;42.872;25.494;2022-07-04T09:25:08;6.20;;;4.00;;
33184;SDS011;19550;42.872;25.494;2022-07-04T09:27:38;6.22;;;4.20;;
33184;SDS011;19550;42.872;25.494;2022-07-04T09:30:07;9.15;;;4.10;;
33184;SDS011;19550;42.872;25.494;2022-07-04T09:32:38;9.85;;;4.45;;
33184;SDS011;19550;42.872;25.494;2022-07-04T09:35:07;10.00;;;4.28;;
33184;SDS011;19550;42.872;25.494;2022-07-04T09:37:35;8.43;;;4.30;;
33184;SDS011;19550;42.872;25.494;2022-07-04T09:40:04;6.63;;;3.97;;
33184;SDS011;19550;42.872;25.494;2022-07-04T09:42:36;19.55;;;4.85;;
33184;SDS011;19550;42.872;25.494;2022-07-04T09:45:08;10.00;;;4.40;;
33184;SDS011;19550;42.872;25.494;2022-07-04T09:50:04;10.50;;;4.72;;
33184;SDS011;19550;42.872;25.494;2022-07-04T09:52:43;9.70;;;5.07;;
33184;SDS011;19550;42.872;25.494;2022-07-04T09:55:12;5.97;;;4.40;;
33184;SDS011;19550;42.872;25.494;2022-07-04T09:57:45;9.20;;;4.40;;
33184;SDS011;19550;42.872;25.494;2022-07-04T10:00:18;8.90;;;4.28;;
33184;SDS011;19550;42.872;25.494;2022-07-04T10:02:48;7.78;;;4.30;;
33184;SDS011;19550;42.872;25.494;2022-07-04T10:05:22;8.88;;;4.60;;
33184;SDS011;19550;42.872;25.494;2022-07-04T10:07:50;6.35;;;4.40;;
33184;SDS011;19550;42.872;25.494;2022-07-04T10:10:21;12.52;;;4.75;;
33184;SDS011;19550;42.872;25.494;2022-07-04T10:12:51;6.97;;;3.92;;
33184;SDS011;19550;42.872;25.494;2022-07-04T10:15:21;8.68;;;4.28;;
33184;SDS011;19550;42.872;25.494;2022-07-04T10:17:48;7.57;;;3.80;;
33184;SDS011;19550;42.872;25.494;2022-07-04T10:20:16;7.05;;;4.72;;
33184;SDS011;19550;42.872;25.494;2022-07-04T10:22:43;8.05;;;4.30;;
33184;SDS011;19550;42.872;25.494;2022-07-04T10:25:10;8.18;;;4.53;;
33184;SDS011;19550;42.872;25.494;2022-07-04T10:27:38;13.00;;;4.55;;
33184;SDS011;19550;42.872;25.494;2022-07-04T10:30:08;8.23;;;4.65;;
33184;SDS011;19550;42.872;25.494;2022-07-04T10:32:38;13.02;;;4.47;;
33184;SDS011;19550;42.872;25.494;2022-07-04T10:35:08;5.75;;;4.43;;
33184;SDS011;19550;42.872;25.494;2022-07-04T10:40:47;9.02;;;4.38;;
33184;SDS011;19550;42.872;25.494;2022-07-04T10:46:30;5.07;;;4.22;;
33184;SDS011;19550;42.872;25.494;2022-07-04T10:49:02;5.65;;;4.00;;
33184;SDS011;19550;42.872;25.494;2022-07-04T10:54:08;9.07;;;4.30;;
33184;SDS011;19550;42.872;25.494;2022-07-04T10:56:38;6.57;;;4.30;;
33184;SDS011;19550;42.872;25.494;2022-07-04T10:59:08;7.82;;;4.05;;
33184;SDS011;19550;42.872;25.494;2022-07-04T11:01:37;11.50;;;4.13;;
33184;SDS011;19550;42.872;25.494;2022-07-04T11:04:05;5.83;;;4.13;;
33184;SDS011;19550;42.872;25.494;2022-07-04T11:06:51;7.32;;;4.18;;
33184;SDS011;19550;42.872;25.494;2022-07-04T11:09:22;12.25;;;3.90;;
33184;SDS011;19550;42.872;25.494;2022-07-04T11:11:50;7.80;;;4.05;;
33184;SDS011;19550;42.872;25.494;2022-07-04T11:14:31;5.65;;;4.70;;
33184;SDS011;19550;42.872;25.494;2022-07-04T11:17:04;4.93;;;3.78;;
33184;SDS011;19550;42.872;25.494;2022-07-04T11:19:33;8.25;;;4.45;;
33184;SDS011;19550;42.872;25.494;2022-07-04T11:22:00;8.48;;;3.92;;
33184;SDS011;19550;42.872;25.494;2022-07-04T11:24:27;6.07;;;4.03;;
33184;SDS011;19550;42.872;25.494;2022-07-04T11:26:55;5.75;;;4.10;;
33184;SDS011;19550;42.872;25.494;2022-07-04T11:29:22;6.63;;;4.00;;
33184;SDS011;19550;42.872;25.494;2022-07-04T11:31:49;9.32;;;4.30;;
33184;SDS011;19550;42.872;25.494;2022-07-04T11:34:19;4.95;;;4.00;;
33184;SDS011;19550;42.872;25.494;2022-07-04T11:36:47;7.05;;;4.68;;
33184;SDS011;19550;42.872;25.494;2022-07-04T11:41:45;6.28;;;4.25;;
33184;SDS011;19550;42.872;25.494;2022-07-04T11:44:31;6.35;;;4.20;;
33184;SDS011;19550;42.872;25.494;2022-07-04T11:47:18;7.80;;;4.45;;
33184;SDS011;19550;42.872;25.494;2022-07-04T11:49:48;6.95;;;4.32;;
33184;SDS011;19550;42.872;25.494;2022-07-04T11:52:18;6.53;;;3.72;;
33184;SDS011;19550;42.872;25.494;2022-07-04T11:54:47;8.77;;;3.97;;
33184;SDS011;19550;42.872;25.494;2022-07-04T11:57:16;8.95;;;4.32;;
33184;SDS011;19550;42.872;25.494;2022-07-04T11:59:51;7.90;;;3.97;;
33184;SDS011;19550;42.872;25.494;2022-07-04T12:02:20;10.20;;;4.00;;
33184;SDS011;19550;42.872;25.494;2022-07-04T12:04:48;5.80;;;3.85;;
33184;SDS011;19550;42.872;25.494;2022-07-04T12:07:16;7.10;;;3.85;;
33184;SDS011;19550;42.872;25.494;2022-07-04T12:09:45;9.13;;;3.90;;
33184;SDS011;19550;42.872;25.494;2022-07-04T12:12:13;4.57;;;4.15;;
33184;SDS011;19550;42.872;25.494;2022-07-04T12:14:56;8.73;;;4.05;;
33184;SDS011;19550;42.872;25.494;2022-07-04T12:17:28;7.88;;;4.00;;
33184;SDS011;19550;42.872;25.494;2022-07-04T12:19:59;7.82;;;4.30;;
33184;SDS011;19550;42.872;25.494;2022-07-04T12:22:37;10.35;;;4.38;;
33184;SDS011;19550;42.872;25.494;2022-07-04T12:25:05;6.20;;;3.97;;
33184;SDS011;19550;42.872;25.494;2022-07-04T12:27:36;8.93;;;4.05;;
33184;SDS011;19550;42.872;25.494;2022-07-04T12:30:04;10.55;;;4.43;;
33184;SDS011;19550;42.872;25.494;2022-07-04T12:32:48;8.75;;;4.88;;
33184;SDS011;19550;42.872;25.494;2022-07-04T12:44:00;11.90;;;4.70;;
33184;SDS011;19550;42.872;25.494;2022-07-04T12:46:28;7.25;;;4.45;;
33184;SDS011;19550;42.872;25.494;2022-07-04T12:48:57;7.63;;;4.18;;
33184;SDS011;19550;42.872;25.494;2022-07-04T12:51:28;5.65;;;4.15;;
33184;SDS011;19550;42.872;25.494;2022-07-04T12:53:57;5.30;;;4.40;;
33184;SDS011;19550;42.872;25.494;2022-07-04T12:58:56;7.22;;;4.10;;
33184;SDS011;19550;42.872;25.494;2022-07-04T13:01:24;10.32;;;4.50;;
33184;SDS011;19550;42.872;25.494;2022-07-04T13:03:51;8.55;;;4.40;;
33184;SDS011;19550;42.872;25.494;2022-07-04T13:06:18;6.07;;;4.25;;
33184;SDS011;19550;42.872;25.494;2022-07-04T13:08:47;6.50;;;3.95;;
33184;SDS011;19550;42.872;25.494;2022-07-04T13:11:14;5.65;;;3.90;;
33184;SDS011;19550;42.872;25.494;2022-07-04T13:13:58;7.95;;;4.07;;
33184;SDS011;19550;42.872;25.494;2022-07-04T13:16:25;6.15;;;4.40;;
33184;SDS011;19550;42.872;25.494;2022-07-04T13:18:52;21.15;;;4.43;;
33184;SDS011;19550;42.872;25.494;2022-07-04T13:21:19;10.20;;;3.83;;
33184;SDS011;19550;42.872;25.494;2022-07-04T13:23:48;7.68;;;4.45;;
33184;SDS011;19550;42.872;25.494;2022-07-04T13:26:15;6.20;;;3.95;;
33184;SDS011;19550;42.872;25.494;2022-07-04T13:28:42;4.95;;;3.72;;
33184;SDS011;19550;42.872;25.494;2022-07-04T13:31:09;4.82;;;3.65;;
33184;SDS011;19550;42.872;25.494;2022-07-04T13:33:37;5.32;;;3.75;;
33184;SDS011;19550;42.872;25.494;2022-07-04T13:36:04;6.95;;;4.00;;
33184;SDS011;19550;42.872;25.494;2022-07-04T13:38:31;8.20;;;4.57;;
33184;SDS011;19550;42.872;25.494;2022-07-04T13:40:59;7.00;;;3.85;;
33184;SDS011;19550;42.872;25.494;2022-07-04T13:43:27;12.98;;;4.35;;
33184;SDS011;19550;42.872;25.494;2022-07-04T13:45:55;5.00;;;3.80;;
33184;SDS011;19550;42.872;25.494;2022-07-04T13:48:22;7.63;;;4.07;;
33184;SDS011;19550;42.872;25.494;2022-07-04T13:50:50;4.65;;;4.15;;
33184;SDS011;19550;42.872;25.494;2022-07-04T13:53:17;6.43;;;4.60;;
33184;SDS011;19550;42.872;25.494;2022-07-04T13:55:45;7.33;;;3.90;;
33184;SDS011;19550;42.872;25.494;2022-07-04T13:58:14;10.90;;;4.07;;
33184;SDS011;19550;42.872;25.494;2022-07-04T14:00:41;6.07;;;4.18;;
33184;SDS011;19550;42.872;25.494;2022-07-04T14:03:10;9.00;;;4.30;;
33184;SDS011;19550;42.872;25.494;2022-07-04T14:05:37;6.82;;;4.28;;
33184;SDS011;19550;42.872;25.494;2022-07-04T14:08:06;8.05;;;4.30;;
33184;SDS011;19550;42.872;25.494;2022-07-04T14:10:34;9.05;;;4.63;;
33184;SDS011;19550;42.872;25.494;2022-07-04T14:13:01;6.32;;;4.00;;
33184;SDS011;19550;42.872;25.494;2022-07-04T14:15:30;7.03;;;4.45;;
33184;SDS011;19550;42.872;25.494;2022-07-04T14:17:57;10.07;;;4.00;;
33184;SDS011;19550;42.872;25.494;2022-07-04T14:20:24;8.50;;;4.82;;
33184;SDS011;19550;42.872;25.494;2022-07-04T14:22:51;7.68;;;5.22;;
33184;SDS011;19550;42.872;25.494;2022-07-04T14:25:18;8.23;;;4.55;;
33184;SDS011;19550;42.872;25.494;2022-07-04T14:27:45;7.18;;;4.00;;
33184;SDS011;19550;42.872;25.494;2022-07-04T14:30:12;6.78;;;5.65;;
33184;SDS011;19550;42.872;25.494;2022-07-04T14:32:41;5.65;;;4.00;;
33184;SDS011;19550;42.872;25.494;2022-07-04T14:35:08;5.97;;;4.35;;
33184;SDS011;19550;42.872;25.494;2022-07-04T14:37:35;4.88;;;4.28;;
33184;SDS011;19550;42.872;25.494;2022-07-04T14:40:03;9.77;;;5.35;;
33184;SDS011;19550;42.872;25.494;2022-07-04T14:42:31;8.77;;;4.50;;
33184;SDS011;19550;42.872;25.494;2022-07-04T14:44:58;7.28;;;4.20;;
33184;SDS011;19550;42.872;25.494;2022-07-04T14:47:25;6.30;;;4.13;;
33184;SDS011;19550;42.872;25.494;2022-07-04T14:49:56;6.82;;;4.60;;
33184;SDS011;19550;42.872;25.494;2022-07-04T14:52:23;8.43;;;4.13;;
33184;SDS011;19550;42.872;25.494;2022-07-04T14:54:50;6.82;;;4.93;;
33184;SDS011;19550;42.872;25.494;2022-07-04T14:57:17;11.13;;;6.88;;
33184;SDS011;19550;42.872;25.494;2022-07-04T14:59:44;5.53;;;4.80;;
33184;SDS011;19550;42.872;25.494;2022-07-04T15:02:11;12.88;;;7.80;;
33184;SDS011;19550;42.872;25.494;2022-07-04T15:04:38;8.93;;;5.35;;